CST,Max TemperatureF,Mean TemperatureF,Min TemperatureF,Max Dew PointF,MeanDew PointF,Min DewpointF,Max Humidity, Mean Humidity, Min Humidity, Max Sea Level PressureIn, Mean Sea Level PressureIn, Min Sea Level PressureIn, Max VisibilityMiles, Mean VisibilityMiles, Min VisibilityMiles, Max Wind SpeedMPH, Mean Wind SpeedMPH, Max Gust SpeedMPH,PrecipitationIn, CloudCover, Events, WindDirDegrees
2013-11-1,62,50,37,38,33,29,77,55,30,30.15,29.94,29.77,10,10,10,25,12,41,0.00,3,Rain-Thunderstorm,310
2013-11-2,61,45,30,31,27,23,82,55,24,30.31,30.19,30.03,10,10,10,20,8,,0.00,0,,236
2013-11-3,69,56,45,37,33,30,57,46,26,29.99,29.76,29.61,10,10,10,43,30,55,0.00,0,,170
2013-11-4,60,50,39,39,34,32,76,58,34,30.08,29.91,29.63,10,10,4,31,20,40,0.00,0,,14
2013-11-5,57,47,37,56,43,32,100,90,66,30.16,29.93,29.79,10,6,2,28,11,34,1.01,8,Rain-Thunderstorm,16
2013-11-6,54,42,30,32,30,26,93,73,34,30.36,30.27,30.15,10,9,5,18,11,24,0.00,3,,297
2013-11-7,55,42,30,37,32,26,89,68,40,30.48,30.38,30.23,10,10,10,13,6,,0.00,0,,187
2013-11-8,71,56,41,36,33,29,76,51,23,30.19,29.92,29.75,10,10,10,30,18,46,0.00,0,,195
2013-11-9,64,50,36,37,33,31,89,58,30,30.31,30.14,29.94,10,10,10,15,9,20,0.00,0,,55
2013-11-10,60,48,36,47,39,31,93,74,51,30.37,30.28,30.19,10,10,7,17,10,25,0.00,3,,146
2013-11-11,52,40,26,49,37,13,93,84,58,30.77,30.33,30.13,10,7,2,24,14,32,0.00,7,Rain,344
2013-11-12,37,26,16,15,10,3,74,52,26,30.93,30.80,30.64,10,10,10,15,9,,0.00,0,,48
2013-11-13,63,45,27,37,24,13,58,48,38,30.61,30.29,30.04,10,10,10,26,18,37,0.00,0,,190
2013-11-14,55,46,35,35,28,21,82,55,41,30.01,29.94,29.91,10,10,10,17,12,22,0.00,0,,178
2013-11-15,60,42,24,42,34,22,92,69,41,29.92,29.74,29.49,10,10,10,25,10,34,0.00,0,,175
2013-11-16,69,58,48,42,36,30,74,51,26,29.46,29.38,29.28,10,10,10,25,15,38,0.00,0,,155
2013-11-17,59,46,33,35,22,9,73,40,14,30.15,29.78,29.29,10,10,9,37,18,51,0.00,0,Snow,295
2013-11-18,60,43,26,25,21,18,78,51,20,30.31,30.22,30.13,10,10,9,17,8,22,0.00,0,Snow,204
2013-11-19,62,48,35,35,29,23,62,47,35,30.17,29.94,29.76,10,10,10,30,17,40,0.00,0,,169
2013-11-20,66,56,46,42,36,29,86,57,34,29.88,29.78,29.72,10,10,10,13,9,,0.00,0,,192
2013-11-21,46,34,19,42,23,15,86,80,68,30.63,30.27,29.89,10,7,2,25,18,39,0.16,7,Rain-Snow,359
2013-11-22,28,22,17,18,13,9,78,64,49,30.78,30.70,30.66,10,10,10,25,15,31,0.00,3,,339
2013-11-23,30,26,19,17,16,14,82,66,54,30.86,30.77,30.69,10,10,10,15,8,,0.00,0,,42
2013-11-24,30,24,18,21,16,11,84,70,55,30.73,30.50,30.24,10,10,9,20,11,,0.00,4,Snow,170
2013-11-25,39,32,26,27,23,20,85,77,60,30.30,30.22,30.15,10,10,10,15,11,,0.00,5,,251
2013-11-26,37,28,19,23,16,8,81,64,41,30.50,30.41,30.30,10,10,10,21,11,31,0.00,0,,344
2013-11-27,45,28,12,24,16,6,81,61,42,30.48,30.30,30.11,10,10,10,23,9,24,0.00,0,,194
2013-11-28,39,31,23,25,23,20,89,74,53,30.47,30.35,30.12,10,10,8,13,9,,0.00,0,,41
2013-11-29,55,37,19,32,25,17,89,70,40,30.45,30.27,30.13,10,10,7,22,11,31,0.00,0,,157
2013-11-30,64,44,25,32,27,22,92,66,26,30.17,30.13,30.08,10,10,9,9,7,,0.00,0,,263